Time;durP1;ratioP1;P1;durP2;ratioP2;P2;SDS_P1;SDS_P2;PMS_P1;PMS_P2;Temp;Humidity;BMP_temperature;BMP_pressure;BME280_temperature;BME280_humidity;BME280_pressure;Samples;Min_cycle;Max_cycle;Signal;HPM_P1;HPM_P2
2021/12/04 00:02:03;;;;;;;28.98;15.10;;;;;;;;;;5071607;28;20102;-73
2021/12/04 00:04:35;;;;;;;30.08;14.57;;;;;;;;;;5070984;28;20048;-73
2021/12/04 00:07:01;;;;;;;;;;;;;;;;;;5072067;28;20066;-73
2021/12/04 00:09:29;;;;;;;24.38;13.80;;;;;;;;;;5071698;28;19916;-72
2021/12/04 00:11:58;;;;;;;29.55;15.38;;;;;;;;;;5071069;28;20074;-72
2021/12/04 00:14:24;;;;;;;25.60;13.27;;;;;;;;;;5070604;28;20067;-72
2021/12/04 00:16:50;;;;;;;28.05;14.15;;;;;;;;;;5071151;28;20044;-73
2021/12/04 00:19:16;;;;;;;28.63;14.45;;;;;;;;;;5069832;28;20044;-72
2021/12/04 00:21:42;;;;;;;27.05;12.80;;;;;;;;;;5071352;28;20115;-73
2021/12/04 00:24:08;;;;;;;30.20;15.00;;;;;;;;;;5071042;28;20044;-72
2021/12/04 00:26:34;;;;;;;26.95;13.32;;;;;;;;;;5071157;28;20045;-72
2021/12/04 00:29:00;;;;;;;32.92;16.25;;;;;;;;;;5070574;28;20050;-73
2021/12/04 00:31:27;;;;;;;32.35;15.20;;;;;;;;;;5070912;28;20442;-73
2021/12/04 00:33:53;;;;;;;33.67;16.20;;;;;;;;;;5070878;28;20040;-73
2021/12/04 00:36:28;;;;;;;29.52;15.73;;;;;;;;;;5071752;28;20048;-73
2021/12/04 00:49:54;;;;;;;26.70;15.07;;;;;;;;;;5071313;28;20226;-73
2021/12/04 00:52:20;;;;;;;30.85;15.63;;;;;;;;;;5071008;28;20404;-72
2021/12/04 00:54:46;;;;;;;27.63;15.25;;;;;;;;;;5070292;28;20036;-72
2021/12/04 00:57:12;;;;;;;25.80;14.85;;;;;;;;;;5071229;28;20037;-73
2021/12/04 00:59:38;;;;;;;29.58;15.98;;;;;;;;;;5070974;28;20447;-72
2021/12/04 01:02:04;;;;;;;29.55;15.80;;;;;;;;;;5064894;28;20040;-72
2021/12/04 01:04:30;;;;;;;27.35;15.23;;;;;;;;;;5070864;28;20045;-73
2021/12/04 01:06:56;;;;;;;27.35;15.43;;;;;;;;;;5071453;28;20121;-72
2021/12/04 01:09:23;;;;;;;26.55;15.88;;;;;;;;;;5070559;28;20043;-72
2021/12/04 01:11:51;;;;;;;28.38;15.52;;;;;;;;;;5070578;28;20127;-72
2021/12/04 01:14:18;;;;;;;27.92;15.65;;;;;;;;;;5070065;28;20533;-72
2021/12/04 01:16:44;;;;;;;31.13;16.42;;;;;;;;;;5070853;28;20491;-72
2021/12/04 01:19:10;;;;;;;28.33;15.10;;;;;;;;;;5070552;28;20032;-72
2021/12/04 01:21:37;;;;;;;25.38;14.60;;;;;;;;;;5070706;28;20039;-73
2021/12/04 01:24:03;;;;;;;26.20;14.63;;;;;;;;;;5070760;28;20524;-72
2021/12/04 01:26:29;;;;;;;25.75;14.55;;;;;;;;;;5071217;28;20048;-72
2021/12/04 01:28:55;;;;;;;22.77;13.98;;;;;;;;;;5070629;28;20386;-72
2021/12/04 01:31:21;;;;;;;25.25;14.25;;;;;;;;;;5070793;28;20048;-72
2021/12/04 01:33:47;;;;;;;25.05;15.60;;;;;;;;;;5070519;28;20037;-72
2021/12/04 01:36:13;;;;;;;24.40;14.43;;;;;;;;;;5070835;28;20032;-73
2021/12/04 01:38:39;;;;;;;23.98;15.20;;;;;;;;;;5071069;28;20428;-72
2021/12/04 01:41:05;;;;;;;24.88;14.73;;;;;;;;;;5074035;28;20041;-72
2021/12/04 01:43:31;;;;;;;24.30;14.38;;;;;;;;;;5074719;28;20510;-72
2021/12/04 01:45:57;;;;;;;24.35;13.55;;;;;;;;;;5074369;28;20036;-72
2021/12/04 01:48:24;;;;;;;24.83;13.32;;;;;;;;;;5073808;28;20044;-73
2021/12/04 01:50:50;;;;;;;21.05;12.98;;;;;;;;;;5074047;28;20044;-72
2021/12/04 01:53:16;;;;;;;24.15;13.45;;;;;;;;;;5073997;28;20082;-72
2021/12/04 01:55:42;;;;;;;25.15;13.80;;;;;;;;;;5074099;28;20040;-72
2021/12/04 01:58:08;;;;;;;21.33;13.65;;;;;;;;;;5113578;22;20039;-66
2021/12/04 02:00:37;;;;;;;19.85;12.25;;;;;;;;;;5134513;27;20074;-66
2021/12/04 02:03:04;;;;;;;21.42;12.68;;;;;;;;;;5116560;27;20039;-66
2021/12/04 02:05:30;;;;;;;20.65;12.65;;;;;;;;;;5134777;27;20067;-66
2021/12/04 02:07:56;;;;;;;16.95;11.43;;;;;;;;;;5126881;27;20126;-65
2021/12/04 02:10:22;;;;;;;20.15;12.27;;;;;;;;;;5096551;28;20039;-66
2021/12/04 02:12:49;;;;;;;18.35;11.57;;;;;;;;;;5097636;27;20058;-66
2021/12/04 02:15:16;;;;;;;17.63;11.85;;;;;;;;;;5104865;27;20540;-63
2021/12/04 02:17:45;;;;;;;15.65;11.05;;;;;;;;;;5125238;27;20036;-63
2021/12/04 02:20:15;;;;;;;15.30;10.38;;;;;;;;;;5135297;27;20437;-64
2021/12/04 02:22:41;;;;;;;14.75;10.25;;;;;;;;;;5117941;27;20114;-63
2021/12/04 02:25:09;;;;;;;13.95;9.60;;;;;;;;;;5096511;27;20461;-64
2021/12/04 02:27:35;;;;;;;14.27;9.52;;;;;;;;;;5117469;27;20490;-63
2021/12/04 02:30:01;;;;;;;12.40;8.90;;;;;;;;;;5121799;27;20523;-63
2021/12/04 02:32:28;;;;;;;10.52;8.02;;;;;;;;;;5114892;27;20044;-63
2021/12/04 02:34:54;;;;;;;12.35;8.68;;;;;;;;;;5114245;27;20553;-64
2021/12/04 02:37:20;;;;;;;11.52;8.95;;;;;;;;;;5133161;27;20039;-63
2021/12/04 02:39:55;;;;;;;14.23;8.75;;;;;;;;;;5123482;27;20062;-63
2021/12/04 02:42:22;;;;;;;11.45;8.00;;;;;;;;;;5095315;28;20035;-63
2021/12/04 02:44:49;;;;;;;12.77;8.63;;;;;;;;;;5126715;27;20039;-63
2021/12/04 02:47:15;;;;;;;12.27;8.38;;;;;;;;;;5108689;27;20088;-63
2021/12/04 02:49:42;;;;;;;13.48;9.18;;;;;;;;;;5102152;28;20039;-63
2021/12/04 02:52:09;;;;;;;11.95;9.13;;;;;;;;;;5095442;27;20489;-63
2021/12/04 02:54:35;;;;;;;12.35;8.50;;;;;;;;;;5114965;27;20051;-63
2021/12/04 02:57:02;;;;;;;16.02;9.27;;;;;;;;;;5132164;27;20039;-63
2021/12/04 02:59:28;;;;;;;13.40;9.38;;;;;;;;;;5123578;27;20095;-63
2021/12/04 03:01:55;;;;;;;13.75;9.60;;;;;;;;;;5126542;27;20523;-63
2021/12/04 03:04:24;;;;;;;11.65;9.00;;;;;;;;;;5131315;27;20036;-63
2021/12/04 03:06:50;;;;;;;12.88;9.15;;;;;;;;;;5127970;27;20035;-63
2021/12/04 03:09:16;;;;;;;12.23;8.65;;;;;;;;;;5112867;27;20040;-63
2021/12/04 03:11:43;;;;;;;13.35;9.05;;;;;;;;;;5114900;27;20043;-63
2021/12/04 03:14:09;;;;;;;14.75;9.70;;;;;;;;;;5123980;27;20070;-63
2021/12/04 03:16:37;;;;;;;11.50;7.97;;;;;;;;;;5125819;27;20058;-63
2021/12/04 03:19:03;;;;;;;13.07;9.07;;;;;;;;;;5118061;27;20035;-63
2021/12/04 03:21:30;;;;;;;12.05;8.60;;;;;;;;;;5096602;27;20040;-64
2021/12/04 03:24:00;;;;;;;10.98;7.63;;;;;;;;;;5133739;27;20099;-63
2021/12/04 03:26:26;;;;;;;11.63;8.52;;;;;;;;;;5131481;27;20064;-63
2021/12/04 03:28:53;;;;;;;12.88;8.60;;;;;;;;;;5128854;27;20043;-63
2021/12/04 03:42:53;;;;;;;10.80;7.55;;;;;;;;;;5043301;28;20175;-63
2021/12/04 03:45:19;;;;;;;11.45;7.47;;;;;;;;;;5048609;28;20418;-63
2021/12/04 03:47:48;;;;;;;15.75;8.85;;;;;;;;;;5066247;27;20043;-63
2021/12/04 03:50:15;;;;;;;11.48;7.30;;;;;;;;;;5130824;27;20476;-63
2021/12/04 03:52:41;;;;;;;13.75;7.93;;;;;;;;;;5118616;27;20035;-63
2021/12/04 03:55:07;;;;;;;13.00;7.65;;;;;;;;;;5107357;27;20122;-63
2021/12/04 03:57:34;;;;;;;12.32;8.32;;;;;;;;;;5098830;28;20040;-63
2021/12/04 04:00:00;;;;;;;11.77;8.35;;;;;;;;;;5116972;27;20042;-63
2021/12/04 04:02:26;;;;;;;11.73;8.75;;;;;;;;;;5101627;28;20057;-63
2021/12/04 04:04:53;;;;;;;11.48;7.65;;;;;;;;;;5127279;27;20091;-63
2021/12/04 04:07:19;;;;;;;12.57;7.65;;;;;;;;;;5132999;27;20118;-63
2021/12/04 04:09:45;;;;;;;13.23;8.23;;;;;;;;;;5114213;27;20139;-63
2021/12/04 04:12:11;;;;;;;10.35;7.45;;;;;;;;;;5111780;28;20046;-63
2021/12/04 04:14:37;;;;;;;10.57;7.68;;;;;;;;;;5114988;27;20048;-63
2021/12/04 04:17:04;;;;;;;12.10;8.40;;;;;;;;;;5123630;27;20035;-63
2021/12/04 04:19:31;;;;;;;9.77;7.32;;;;;;;;;;5122846;27;20100;-63
2021/12/04 04:21:58;;;;;;;11.15;8.07;;;;;;;;;;5114745;27;20122;-63
2021/12/04 04:24:25;;;;;;;12.43;8.57;;;;;;;;;;5121852;27;20043;-63
2021/12/04 04:26:51;;;;;;;11.02;7.85;;;;;;;;;;5132287;27;20074;-63
2021/12/04 04:29:18;;;;;;;13.27;7.80;;;;;;;;;;5120615;27;20466;-63
2021/12/04 04:31:48;;;;;;;11.52;8.23;;;;;;;;;;5120916;27;20035;-63
2021/12/04 04:34:26;;;;;;;11.68;8.02;;;;;;;;;;5112117;28;20052;-63
2021/12/04 05:12:46;;;;;;;13.30;8.35;;;;;;;;;;5116335;28;20043;-63
2021/12/04 05:15:15;;;;;;;9.57;6.97;;;;;;;;;;5132883;27;20415;-63
2021/12/04 05:20:21;;;;;;;11.95;8.07;;;;;;;;;;5118400;27;20093;-63
2021/12/04 05:22:47;;;;;;;12.55;8.30;;;;;;;;;;5120649;27;20171;-63
2021/12/04 05:25:13;;;;;;;14.50;8.80;;;;;;;;;;5109142;27;20046;-63
2021/12/04 05:27:39;;;;;;;11.27;7.97;;;;;;;;;;5122838;27;20036;-63
2021/12/04 05:30:06;;;;;;;13.40;8.65;;;;;;;;;;5097130;28;20074;-63
2021/12/04 05:32:32;;;;;;;12.40;8.45;;;;;;;;;;5128684;27;20476;-63
2021/12/04 05:34:59;;;;;;;12.77;8.93;;;;;;;;;;5106098;27;20043;-63
2021/12/04 05:37:25;;;;;;;12.35;8.38;;;;;;;;;;5126389;27;20032;-63
2021/12/04 05:39:51;;;;;;;12.30;8.32;;;;;;;;;;5115171;28;20063;-63
2021/12/04 05:42:16;;;;;;;12.20;8.60;;;;;;;;;;5131430;27;20077;-63
2021/12/04 05:44:44;;;;;;;12.85;8.77;;;;;;;;;;5121651;27;20035;-63
2021/12/04 05:47:19;;;;;;;14.13;8.80;;;;;;;;;;5115020;28;20040;-63
2021/12/04 05:52:36;;;;;;;13.20;8.75;;;;;;;;;;5132740;27;20040;-63
2021/12/04 05:55:13;;;;;;;12.77;8.55;;;;;;;;;;5129371;27;20092;-63
2021/12/04 05:57:39;;;;;;;13.20;9.02;;;;;;;;;;5114641;28;20516;-63
2021/12/04 06:00:10;;;;;;;15.48;8.70;;;;;;;;;;5097969;27;20134;-63
2021/12/04 06:02:36;;;;;;;14.27;8.80;;;;;;;;;;5134471;27;20038;-63
2021/12/04 06:05:02;;;;;;;14.30;9.00;;;;;;;;;;5134130;27;20039;-63
2021/12/04 06:07:28;;;;;;;13.70;8.98;;;;;;;;;;5135497;27;20035;-63
2021/12/04 06:09:54;;;;;;;14.18;9.68;;;;;;;;;;5130559;27;20538;-63
2021/12/04 06:12:20;;;;;;;13.60;9.40;;;;;;;;;;5132863;27;20035;-63
2021/12/04 06:14:48;;;;;;;14.57;9.27;;;;;;;;;;5116589;27;20412;-63
2021/12/04 06:17:15;;;;;;;15.00;9.65;;;;;;;;;;5133021;27;20449;-63
2021/12/04 06:22:38;;;;;;;13.60;8.80;;;;;;;;;;5133976;27;20130;-63
2021/12/04 06:25:26;;;;;;;14.25;8.98;;;;;;;;;;5113908;27;20043;-63
2021/12/04 06:27:53;;;;;;;13.63;9.07;;;;;;;;;;5114001;27;20031;-63
2021/12/04 06:30:19;;;;;;;16.20;9.38;;;;;;;;;;5098174;28;20047;-63
2021/12/04 06:32:50;;;;;;;14.20;9.05;;;;;;;;;;5130990;27;20438;-63
2021/12/04 06:35:18;;;;;;;14.52;8.75;;;;;;;;;;5133873;27;20043;-63
2021/12/04 06:37:44;;;;;;;14.60;8.77;;;;;;;;;;5118220;27;20043;-63
2021/12/04 06:40:14;;;;;;;13.25;8.82;;;;;;;;;;5120509;27;20115;-63
2021/12/04 06:42:41;;;;;;;16.30;9.93;;;;;;;;;;5120293;27;20027;-63
2021/12/04 06:45:07;;;;;;;14.98;8.63;;;;;;;;;;5115905;27;20097;-63
2021/12/04 06:47:34;;;;;;;13.27;8.75;;;;;;;;;;5134339;27;20035;-64
2021/12/04 06:50:07;;;;;;;15.90;9.50;;;;;;;;;;5118589;27;20042;-64
2021/12/04 06:52:34;;;;;;;15.05;8.90;;;;;;;;;;5113847;28;20043;-63
2021/12/04 06:55:02;;;;;;;16.63;9.60;;;;;;;;;;5102309;27;20112;-63
2021/12/04 06:57:29;;;;;;;16.67;9.77;;;;;;;;;;5134345;27;20050;-63
2021/12/04 06:59:56;;;;;;;18.65;9.85;;;;;;;;;;5115717;27;20036;-64
2021/12/04 07:02:22;;;;;;;17.13;9.88;;;;;;;;;;5117706;27;20087;-64
2021/12/04 07:04:49;;;;;;;16.30;9.80;;;;;;;;;;5134319;27;20469;-64
2021/12/04 07:07:15;;;;;;;18.05;10.65;;;;;;;;;;5119771;27;20031;-64
2021/12/04 07:09:43;;;;;;;18.55;11.63;;;;;;;;;;5113452;27;20036;-63
2021/12/04 07:12:09;;;;;;;20.60;12.25;;;;;;;;;;5115405;27;20050;-64
2021/12/04 07:14:35;;;;;;;22.30;11.32;;;;;;;;;;5111203;27;20408;-64
2021/12/04 07:17:03;;;;;;;28.17;12.88;;;;;;;;;;5133998;27;20039;-64
2021/12/04 07:19:29;;;;;;;22.17;11.95;;;;;;;;;;5121816;27;20409;-63
2021/12/04 07:21:55;;;;;;;28.05;13.00;;;;;;;;;;5132967;27;20031;-64
2021/12/04 07:24:21;;;;;;;22.88;12.43;;;;;;;;;;5114124;27;20042;-64
2021/12/04 07:26:48;;;;;;;24.67;12.77;;;;;;;;;;5102772;27;20047;-63
2021/12/04 07:29:14;;;;;;;23.65;12.50;;;;;;;;;;5131291;27;20126;-64
2021/12/04 07:31:40;;;;;;;23.30;12.70;;;;;;;;;;5113651;27;20043;-63
2021/12/04 07:34:06;;;;;;;26.83;13.18;;;;;;;;;;5116725;27;20042;-63
2021/12/04 07:36:33;;;;;;;27.88;12.82;;;;;;;;;;5132738;27;20042;-64
2021/12/04 07:38:59;;;;;;;26.67;13.40;;;;;;;;;;5121726;27;20036;-63
2021/12/04 07:41:26;;;;;;;26.83;13.40;;;;;;;;;;5116352;27;20438;-64
2021/12/04 07:43:52;;;;;;;25.92;13.38;;;;;;;;;;5133482;27;20077;-64
2021/12/04 07:46:18;;;;;;;60.15;15.25;;;;;;;;;;5133177;27;20043;-63
2021/12/04 07:48:44;;;;;;;29.08;13.90;;;;;;;;;;5130220;27;20066;-64
2021/12/04 07:51:11;;;;;;;39.33;14.95;;;;;;;;;;5118643;27;20077;-64
2021/12/04 07:53:37;;;;;;;32.65;14.45;;;;;;;;;;5116962;27;20096;-63
2021/12/04 07:56:03;;;;;;;30.00;13.90;;;;;;;;;;5101368;28;20131;-64
2021/12/04 07:58:30;;;;;;;28.42;13.93;;;;;;;;;;5124830;22;20035;-70
2021/12/04 08:00:56;;;;;;;29.70;13.88;;;;;;;;;;5100303;28;20089;-71
2021/12/04 08:03:22;;;;;;;30.02;13.70;;;;;;;;;;5104153;28;20091;-71
2021/12/04 08:05:49;;;;;;;30.92;13.40;;;;;;;;;;5112180;28;20069;-70
2021/12/04 08:08:15;;;;;;;31.95;13.18;;;;;;;;;;5112197;28;20090;-70
2021/12/04 08:10:41;;;;;;;28.73;12.82;;;;;;;;;;5101986;28;20398;-70
2021/12/04 08:13:07;;;;;;;32.30;13.57;;;;;;;;;;5082946;28;20045;-70
2021/12/04 08:15:35;;;;;;;29.55;13.35;;;;;;;;;;5087849;28;20040;-70
2021/12/04 08:18:01;;;;;;;31.10;13.88;;;;;;;;;;5092078;28;20124;-70
2021/12/04 08:20:27;;;;;;;32.80;13.68;;;;;;;;;;5077585;28;20509;-70
2021/12/04 08:22:53;;;;;;;27.00;13.00;;;;;;;;;;5073536;28;20097;-70
2021/12/04 08:25:20;;;;;;;30.27;13.25;;;;;;;;;;5091122;28;20115;-70
2021/12/04 08:27:47;;;;;;;31.10;13.00;;;;;;;;;;5091445;28;20225;-70
2021/12/04 08:30:14;;;;;;;37.55;14.63;;;;;;;;;;5066666;28;20044;-70
2021/12/04 08:32:41;;;;;;;31.05;12.73;;;;;;;;;;5071380;28;20059;-70
2021/12/04 08:35:08;;;;;;;33.25;13.43;;;;;;;;;;5087484;28;20032;-71
2021/12/04 08:37:34;;;;;;;26.30;11.82;;;;;;;;;;5090874;28;20039;-71
2021/12/04 08:40:00;;;;;;;30.08;13.77;;;;;;;;;;5086578;28;20123;-71
2021/12/04 08:42:26;;;;;;;29.98;12.15;;;;;;;;;;5076711;28;20120;-71
2021/12/04 08:44:53;;;;;;;29.80;13.10;;;;;;;;;;5088210;28;20581;-71
2021/12/04 08:47:19;;;;;;;27.45;12.07;;;;;;;;;;5091852;28;20040;-71
2021/12/04 08:49:45;;;;;;;28.30;12.43;;;;;;;;;;5089091;28;20043;-70
2021/12/04 08:52:16;;;;;;;26.95;12.25;;;;;;;;;;5094459;28;20044;-70
2021/12/04 08:54:42;;;;;;;34.72;13.07;;;;;;;;;;5093281;28;20134;-71
2021/12/04 08:57:08;;;;;;;32.85;12.63;;;;;;;;;;5082357;28;20041;-71
2021/12/04 08:59:35;;;;;;;28.48;12.35;;;;;;;;;;5092445;28;20039;-70
2021/12/04 09:02:01;;;;;;;29.05;12.35;;;;;;;;;;5092136;28;20047;-71
2021/12/04 09:04:29;;;;;;;27.48;11.43;;;;;;;;;;5087492;28;20118;-71
2021/12/04 09:06:55;;;;;;;32.83;12.95;;;;;;;;;;5094777;28;20043;-71
2021/12/04 09:09:21;;;;;;;27.20;11.57;;;;;;;;;;5090897;28;20044;-71
2021/12/04 09:11:50;;;;;;;29.20;12.45;;;;;;;;;;5087199;28;20044;-71
2021/12/04 09:14:16;;;;;;;30.02;11.60;;;;;;;;;;5092045;28;20044;-71
2021/12/04 09:16:42;;;;;;;32.20;12.93;;;;;;;;;;5094224;28;20486;-71
2021/12/04 09:19:08;;;;;;;34.13;12.80;;;;;;;;;;5094474;28;20043;-71
2021/12/04 09:21:37;;;;;;;30.10;12.80;;;;;;;;;;5094937;28;20032;-74
2021/12/04 09:24:14;;;;;;;33.67;12.75;;;;;;;;;;5092038;28;20044;-70
2021/12/04 10:02:07;;;;;;;36.75;14.63;;;;;;;;;;5081525;28;20417;-69
2021/12/04 10:04:51;;;;;;;40.75;15.20;;;;;;;;;;5076016;28;20115;-69
2021/12/04 10:15:58;;;;;;;45.40;15.88;;;;;;;;;;5086872;28;20146;-69
2021/12/04 10:34:32;;;;;;;37.67;14.93;;;;;;;;;;5084350;28;20040;-69
2021/12/04 10:37:14;;;;;;;30.40;12.32;;;;;;;;;;5089479;28;20058;-69
2021/12/04 10:39:40;;;;;;;34.60;13.80;;;;;;;;;;5083856;28;20036;-69
2021/12/04 10:42:29;;;;;;;36.20;13.98;;;;;;;;;;5083855;28;20047;-69
2021/12/04 10:44:56;;;;;;;40.08;14.85;;;;;;;;;;5090217;28;20182;-68
2021/12/04 10:47:24;;;;;;;38.42;14.50;;;;;;;;;;5092685;28;20493;-69
2021/12/04 10:50:06;;;;;;;42.42;16.50;;;;;;;;;;5093486;28;20047;-69
2021/12/04 10:52:47;;;;;;;38.20;15.23;;;;;;;;;;5092513;28;20040;-68
2021/12/04 10:55:20;;;;;;;38.67;16.00;;;;;;;;;;5085251;28;20451;-67
2021/12/04 11:00:38;;;;;;;38.40;15.57;;;;;;;;;;5093447;28;20069;-68
2021/12/04 11:03:20;;;;;;;44.50;17.23;;;;;;;;;;5092941;28;20048;-68
2021/12/04 11:06:18;;;;;;;38.53;16.75;;;;;;;;;;5092049;28;20308;-68
2021/12/04 11:19:37;;;;;;;49.75;19.98;;;;;;;;;;5086001;28;20093;-69
2021/12/04 11:36:10;;;;;;;61.63;22.60;;;;;;;;;;5086406;28;20051;-68
2021/12/04 11:38:27;;;;;;;58.10;23.13;;;;;;;;;;5080869;28;20036;-68
2021/12/04 11:41:11;;;;;;;65.95;24.13;;;;;;;;;;5070893;28;20044;-68
2021/12/04 11:46:41;;;;;;;74.53;25.88;;;;;;;;;;5084239;28;20062;-68
2021/12/04 11:49:08;;;;;;;73.50;26.23;;;;;;;;;;5086525;28;20074;-69
2021/12/04 11:51:34;;;;;;;74.10;27.67;;;;;;;;;;5091813;28;20040;-68
2021/12/04 11:54:10;;;;;;;79.82;26.58;;;;;;;;;;5092375;28;20262;-68
2021/12/04 11:56:36;;;;;;;77.43;27.17;;;;;;;;;;5091629;28;20032;-68
2021/12/04 11:59:02;;;;;;;84.05;27.25;;;;;;;;;;5082384;28;20058;-68
2021/12/04 12:01:33;;;;;;;86.07;28.95;;;;;;;;;;5091669;28;20040;-68
2021/12/04 12:04:09;;;;;;;85.53;28.25;;;;;;;;;;5090127;28;20122;-68
2021/12/04 12:06:39;;;;;;;88.75;28.02;;;;;;;;;;5071883;28;20061;-68
2021/12/04 12:09:05;;;;;;;80.75;28.42;;;;;;;;;;5079161;28;20032;-68
2021/12/04 12:11:31;;;;;;;82.82;28.08;;;;;;;;;;5091629;28;20062;-67
2021/12/04 12:14:00;;;;;;;87.53;28.75;;;;;;;;;;5068937;28;20413;-68
2021/12/04 12:16:34;;;;;;;93.15;28.88;;;;;;;;;;5091373;28;20094;-68
2021/12/04 12:19:03;;;;;;;71.35;25.80;;;;;;;;;;5089316;28;20107;-68
2021/12/04 12:21:42;;;;;;;75.07;26.20;;;;;;;;;;5088860;28;20055;-68
2021/12/04 12:38:29;;;;;;;51.40;20.00;;;;;;;;;;5091458;28;20044;-69
2021/12/04 12:41:03;;;;;;;57.25;22.35;;;;;;;;;;5090922;28;20047;-68
2021/12/04 12:43:35;;;;;;;54.53;21.98;;;;;;;;;;5091827;28;20075;-68
2021/12/04 12:46:01;;;;;;;63.50;22.58;;;;;;;;;;5091400;28;20524;-68
2021/12/04 12:48:27;;;;;;;68.25;25.10;;;;;;;;;;5090743;28;20519;-69
2021/12/04 12:50:53;;;;;;;66.25;24.25;;;;;;;;;;5091443;28;20039;-68
2021/12/04 12:53:27;;;;;;;69.85;25.85;;;;;;;;;;5091324;28;20044;-69
2021/12/04 12:56:13;;;;;;;68.57;24.75;;;;;;;;;;5091697;28;20121;-68
2021/12/04 12:58:54;;;;;;;73.32;23.95;;;;;;;;;;5091368;28;20047;-69
2021/12/04 13:12:46;;;;;;;69.45;26.33;;;;;;;;;;5091431;28;20048;-69
2021/12/04 13:15:13;;;;;;;73.97;25.42;;;;;;;;;;5081500;28;20098;-68
2021/12/04 13:17:41;;;;;;;75.82;25.42;;;;;;;;;;5090476;28;20044;-68
2021/12/04 13:20:07;;;;;;;81.45;29.50;;;;;;;;;;5091332;28;20115;-68
2021/12/04 13:22:35;;;;;;;69.88;25.05;;;;;;;;;;5090648;28;20040;-68
2021/12/04 13:25:03;;;;;;;70.13;26.45;;;;;;;;;;5071160;28;20560;-68
2021/12/04 13:29:59;;;;;;;70.70;26.95;;;;;;;;;;5083845;28;20578;-68
2021/12/04 13:32:44;;;;;;;65.13;25.40;;;;;;;;;;5091080;28;20036;-69
2021/12/04 13:35:20;;;;;;;71.30;25.45;;;;;;;;;;5092568;28;20051;-69
2021/12/04 13:37:47;;;;;;;73.47;28.00;;;;;;;;;;5095014;28;20460;-68
2021/12/04 13:40:15;;;;;;;75.68;27.85;;;;;;;;;;5095055;28;20070;-68
2021/12/04 13:42:41;;;;;;;88.00;30.73;;;;;;;;;;5094528;28;20123;-68
2021/12/04 13:45:09;;;;;;;82.68;28.67;;;;;;;;;;5094625;28;20044;-68
2021/12/04 13:47:36;;;;;;;76.20;27.80;;;;;;;;;;5094086;28;20117;-68
2021/12/04 13:50:43;;;;;;;70.53;25.63;;;;;;;;;;5094548;28;20032;-69
2021/12/04 13:53:19;;;;;;;74.20;26.52;;;;;;;;;;5084351;28;20067;-71
2021/12/04 13:55:48;;;;;;;68.50;26.85;;;;;;;;;;5078745;28;20036;-69
2021/12/04 13:58:14;;;;;;;77.63;27.92;;;;;;;;;;5107281;22;20745;-64
2021/12/04 14:00:40;;;;;;;73.97;27.23;;;;;;;;;;5080993;28;20509;-64
2021/12/04 14:03:06;;;;;;;68.55;26.33;;;;;;;;;;5074830;28;20032;-65
2021/12/04 14:05:32;;;;;;;74.70;27.23;;;;;;;;;;5087766;28;20458;-65
2021/12/04 14:07:59;;;;;;;68.63;24.90;;;;;;;;;;5090060;28;20120;-65
2021/12/04 14:10:27;;;;;;;71.80;27.05;;;;;;;;;;5092428;28;20040;-65
2021/12/04 14:12:54;;;;;;;66.60;25.73;;;;;;;;;;5090959;28;20063;-65
2021/12/04 14:15:21;;;;;;;83.78;29.20;;;;;;;;;;5091470;28;20040;-65
2021/12/04 14:17:49;;;;;;;73.10;25.58;;;;;;;;;;5086905;28;20041;-65
2021/12/04 14:20:21;;;;;;;78.15;28.20;;;;;;;;;;5092355;28;20035;-66
2021/12/04 14:22:48;;;;;;;77.90;28.38;;;;;;;;;;5093103;28;20032;-65
2021/12/04 14:25:15;;;;;;;69.18;26.83;;;;;;;;;;5090687;28;20036;-66
2021/12/04 14:27:41;;;;;;;79.85;27.33;;;;;;;;;;5090747;28;20109;-65
2021/12/04 14:30:13;;;;;;;85.05;28.55;;;;;;;;;;5075380;28;20387;-65
2021/12/04 14:32:40;;;;;;;74.68;27.67;;;;;;;;;;5067479;28;20086;-65
2021/12/04 14:35:15;;;;;;;74.05;27.10;;;;;;;;;;5089406;28;20509;-66
2021/12/04 14:37:42;;;;;;;70.78;26.85;;;;;;;;;;5070108;28;20047;-66
2021/12/04 14:40:09;;;;;;;74.03;26.92;;;;;;;;;;5086417;28;20029;-65
2021/12/04 14:42:36;;;;;;;80.00;28.50;;;;;;;;;;5067973;28;20048;-65
2021/12/04 14:45:23;;;;;;;81.35;29.15;;;;;;;;;;5086210;28;20486;-65
2021/12/04 14:47:51;;;;;;;75.60;27.67;;;;;;;;;;5093395;28;20100;-66
2021/12/04 14:50:18;;;;;;;77.63;28.48;;;;;;;;;;5073248;28;20332;-65
2021/12/04 14:52:48;;;;;;;76.63;27.95;;;;;;;;;;5090848;28;20790;-66
2021/12/04 14:55:16;;;;;;;82.65;28.80;;;;;;;;;;5082757;28;20410;-65
2021/12/04 14:57:43;;;;;;;77.22;27.92;;;;;;;;;;5056048;28;20126;-65
2021/12/04 15:00:16;;;;;;;200.18;37.95;;;;;;;;;;5079949;28;20540;-65
2021/12/04 15:02:53;;;;;;;79.45;27.88;;;;;;;;;;5082134;28;20043;-66
2021/12/04 15:05:31;;;;;;;73.20;25.45;;;;;;;;;;5090031;28;20393;-66
2021/12/04 15:08:01;;;;;;;78.80;26.73;;;;;;;;;;5086548;28;20028;-66
2021/12/04 15:10:27;;;;;;;63.17;25.25;;;;;;;;;;5081305;28;20604;-65
2021/12/04 15:12:58;;;;;;;71.35;27.40;;;;;;;;;;5085571;28;20036;-66
2021/12/04 15:15:24;;;;;;;73.93;25.42;;;;;;;;;;5073659;28;20063;-66
2021/12/04 15:17:54;;;;;;;72.05;27.25;;;;;;;;;;5080741;28;20047;-65
2021/12/04 15:20:28;;;;;;;73.75;27.50;;;;;;;;;;5083741;28;20036;-66
2021/12/04 15:22:57;;;;;;;84.32;27.40;;;;;;;;;;5092687;28;20048;-65
2021/12/04 15:25:26;;;;;;;63.30;25.30;;;;;;;;;;5092638;28;20039;-66
2021/12/04 15:27:52;;;;;;;62.33;25.70;;;;;;;;;;5092183;28;20062;-66
2021/12/04 15:30:19;;;;;;;72.60;26.38;;;;;;;;;;5091436;28;20034;-65
2021/12/04 15:32:46;;;;;;;76.28;26.95;;;;;;;;;;5092432;28;20111;-66
2021/12/04 15:35:16;;;;;;;65.10;26.15;;;;;;;;;;5088842;28;20056;-66
2021/12/04 15:37:49;;;;;;;47.75;21.48;;;;;;;;;;5085167;28;20090;-66
2021/12/04 15:40:26;;;;;;;62.20;25.48;;;;;;;;;;5083285;28;20482;-65
2021/12/04 15:43:07;;;;;;;59.78;24.25;;;;;;;;;;5088745;28;20512;-65
2021/12/04 15:45:52;;;;;;;61.92;25.00;;;;;;;;;;5081128;28;20521;-66
2021/12/04 15:51:32;;;;;;;70.97;25.70;;;;;;;;;;5036796;28;20041;-65
2021/12/04 15:54:03;;;;;;;56.17;24.38;;;;;;;;;;5088952;28;20044;-66
2021/12/04 15:56:31;;;;;;;59.75;24.85;;;;;;;;;;5067170;28;20044;-67
2021/12/04 15:58:57;;;;;;;60.13;24.20;;;;;;;;;;5068470;28;20072;-66
2021/12/04 16:01:27;;;;;;;61.55;24.65;;;;;;;;;;5073383;28;20047;-66
2021/12/04 16:03:53;;;;;;;60.00;25.15;;;;;;;;;;5091925;28;20043;-66
2021/12/04 16:06:19;;;;;;;62.53;25.10;;;;;;;;;;5079867;28;20489;-66
2021/12/04 16:08:45;;;;;;;62.42;25.80;;;;;;;;;;5085323;28;20043;-65
2021/12/04 16:11:14;;;;;;;68.28;25.02;;;;;;;;;;5091417;28;20047;-65
2021/12/04 16:13:40;;;;;;;69.07;25.30;;;;;;;;;;5072550;28;20048;-66
2021/12/04 16:16:11;;;;;;;68.15;25.92;;;;;;;;;;5091743;28;20425;-65
2021/12/04 16:18:37;;;;;;;67.65;26.35;;;;;;;;;;5090837;28;20032;-66
2021/12/04 16:21:03;;;;;;;64.22;26.02;;;;;;;;;;5073179;28;20405;-66
2021/12/04 16:23:32;;;;;;;62.92;25.40;;;;;;;;;;5083768;28;20066;-67
2021/12/04 16:25:59;;;;;;;62.60;25.02;;;;;;;;;;5062294;28;20482;-66
2021/12/04 16:31:11;;;;;;;60.30;24.73;;;;;;;;;;5090806;28;20055;-66
2021/12/04 16:36:42;;;;;;;56.17;23.90;;;;;;;;;;4973797;28;20493;-66
2021/12/04 16:39:10;;;;;;;60.00;24.30;;;;;;;;;;5060939;28;20040;-67
2021/12/04 16:41:37;;;;;;;56.13;23.73;;;;;;;;;;5089386;28;20082;-66
2021/12/04 16:44:06;;;;;;;53.40;23.38;;;;;;;;;;5088301;28;20047;-66
2021/12/04 16:46:35;;;;;;;55.47;24.50;;;;;;;;;;5083454;28;20082;-66
2021/12/04 16:49:02;;;;;;;47.42;22.95;;;;;;;;;;5072824;28;20060;-66
2021/12/04 16:59:37;;;;;;;49.78;24.30;;;;;;;;;;5041678;28;20044;-66
2021/12/04 17:02:04;;;;;;;47.10;22.17;;;;;;;;;;5086548;28;20382;-66
2021/12/04 17:04:30;;;;;;;49.00;23.00;;;;;;;;;;5091191;28;20093;-66
2021/12/04 17:06:57;;;;;;;53.75;24.27;;;;;;;;;;5082381;28;20071;-66
2021/12/04 17:09:24;;;;;;;50.05;23.60;;;;;;;;;;5067671;28;20096;-66
2021/12/04 17:11:54;;;;;;;77.38;32.88;;;;;;;;;;5089880;28;20047;-66
2021/12/04 17:14:21;;;;;;;64.90;24.90;;;;;;;;;;5082300;28;20507;-65
2021/12/04 17:16:47;;;;;;;53.00;22.92;;;;;;;;;;5077009;28;20067;-66
2021/12/04 17:19:14;;;;;;;48.90;23.15;;;;;;;;;;5087776;28;20508;-65
2021/12/04 17:21:41;;;;;;;50.55;24.13;;;;;;;;;;5087057;28;20074;-65
2021/12/04 17:24:09;;;;;;;46.28;22.40;;;;;;;;;;5089783;28;20040;-65
2021/12/04 17:26:35;;;;;;;44.08;21.70;;;;;;;;;;5075645;28;20052;-66
2021/12/04 17:29:01;;;;;;;52.15;25.55;;;;;;;;;;5091585;28;20410;-66
2021/12/04 17:31:29;;;;;;;45.75;23.25;;;;;;;;;;5067619;28;20048;-66
2021/12/04 17:33:55;;;;;;;49.97;27.23;;;;;;;;;;5093886;28;20130;-66
2021/12/04 17:36:22;;;;;;;49.90;26.30;;;;;;;;;;5076499;28;20382;-66
2021/12/04 17:38:48;;;;;;;41.50;22.98;;;;;;;;;;5088902;28;20107;-66
2021/12/04 17:41:15;;;;;;;42.00;23.27;;;;;;;;;;5090412;28;20512;-66
2021/12/04 17:43:41;;;;;;;40.45;21.17;;;;;;;;;;5089042;28;20044;-66
2021/12/04 17:46:09;;;;;;;42.45;22.17;;;;;;;;;;5091097;28;20448;-66
2021/12/04 17:48:35;;;;;;;46.10;24.33;;;;;;;;;;5093742;28;20474;-66
2021/12/04 17:51:02;;;;;;;46.70;24.58;;;;;;;;;;5075150;28;20075;-66